.
WxDataArchive / Data Records for 2015-05-20
2015-05-19 May 2015 2015-05-21

Data Records for Wednesday, 20 May 2015

Time	Temp	Chill	HIndex	Humid	Dewpt	 Wind 	HiWind	WindDir	Rain 	Barom
-----	----	-----	------	-----	-----	------	------	-------	-----	-----
00:00	41.9	41.9	41.9	68	32.1	0	2	292	0.00	30.171 
00:05	41.8	41.8	41.8	68	32.0	0	0	---	0.00	30.171 
00:10	41.6	41.6	41.6	69	32.2	0	1	292	0.00	30.171 
00:15	41.5	41.5	41.5	69	32.1	0	0	---	0.00	30.164 
00:20	41.3	41.3	41.3	69	31.9	0	0	---	0.00	30.164 
00:25	41.3	41.3	41.3	70	32.3	0	0	---	0.00	30.164 
00:30	41.2	41.2	41.2	70	32.2	0	1	292	0.00	30.172 
00:35	41.1	41.1	41.1	71	32.4	0	0	---	0.00	30.172 
00:40	41.1	41.1	41.1	71	32.4	0	1	292	0.00	30.172 
00:45	40.9	40.9	40.9	71	32.2	0	0	---	0.00	30.171 
00:50	40.8	40.8	40.8	71	32.1	0	1	292	0.00	30.171 
00:55	40.6	40.6	40.6	71	31.9	0	1	292	0.00	30.171 
01:00	40.6	40.6	40.6	71	31.9	0	1	292	0.00	30.172 
01:05	40.5	40.5	40.5	71	31.8	0	1	292	0.00	30.172 
01:10	40.5	40.5	40.5	72	32.2	0	1	292	0.00	30.172 
01:15	40.3	40.3	40.3	72	32.0	0	1	292	0.00	30.176 
01:20	40.3	40.3	40.3	71	31.7	0	1	292	0.00	30.176 
01:25	40.2	40.2	40.2	72	31.9	0	0	---	0.00	30.176 
01:30	40.1	40.1	40.1	72	31.8	0	1	292	0.00	30.170 
01:35	40.1	40.1	40.1	73	32.2	0	1	292	0.00	30.170 
01:40	40.1	40.1	40.1	73	32.2	0	2	292	0.00	30.170 
01:45	40.1	40.1	40.1	73	32.2	0	2	292	0.00	30.163 
01:50	40.1	40.1	40.1	73	32.2	0	1	292	0.00	30.163 
01:55	39.9	39.9	39.9	74	32.3	0	1	292	0.00	30.163 
02:00	39.8	39.8	39.8	74	32.2	0	1	292	0.00	30.176 
02:05	39.8	39.8	39.8	74	32.2	0	1	292	0.00	30.176 
02:10	39.5	39.5	39.5	75	32.2	0	1	292	0.00	30.176 
02:15	39.5	39.5	39.5	75	32.2	0	1	292	0.00	30.167 
02:20	39.3	39.3	39.3	75	32.0	0	0	---	0.00	30.167 
02:25	39.2	39.2	39.2	76	32.3	0	1	292	0.00	30.167 
02:30	39.1	39.1	39.1	76	32.2	0	1	292	0.00	30.168 
02:35	39.1	39.1	39.1	76	32.2	0	0	---	0.00	30.168 
02:40	38.9	38.9	38.9	77	32.3	0	1	292	0.00	30.168 
02:45	38.9	38.9	38.9	77	32.3	0	1	292	0.00	30.173 
02:50	38.8	38.8	38.8	77	32.2	0	0	---	0.00	30.173 
02:55	38.8	38.8	38.8	77	32.2	0	0	---	0.00	30.173 
03:00	38.6	38.6	38.6	77	32.0	0	0	---	0.00	30.174 
03:05	38.6	38.6	38.6	77	32.0	0	0	---	0.00	30.174 
03:10	38.5	38.5	38.5	77	31.9	0	0	---	0.00	30.174 
03:15	38.5	38.5	38.5	78	32.2	0	0	---	0.00	30.169 
03:20	38.3	38.3	38.3	78	32.1	0	0	---	0.00	30.169 
03:25	38.2	38.2	38.2	78	32.0	0	0	---	0.00	30.169 
03:30	38.0	38.0	38.0	79	32.1	0	0	---	0.00	30.175 
03:35	37.9	37.9	37.9	79	32.0	0	0	---	0.00	30.175 
03:40	37.9	37.9	37.9	80	32.3	0	0	---	0.00	30.175 
03:45	37.9	37.9	37.9	80	32.3	0	0	---	0.00	30.175 
03:50	37.8	37.8	37.8	81	32.5	0	0	---	0.00	30.175 
03:55	37.8	37.8	37.8	81	32.5	0	0	---	0.00	30.175 
04:00	37.8	37.8	37.8	81	32.5	0	0	---	0.00	30.179 
04:05	37.6	37.6	37.6	81	32.3	0	0	---	0.00	30.179 
04:10	37.6	37.6	37.6	81	32.3	0	0	---	0.00	30.179 
04:15	37.5	37.5	37.5	81	32.2	0	0	---	0.00	30.186 
04:20	37.3	37.3	37.3	82	32.3	0	0	---	0.00	30.186 
04:25	37.2	37.2	37.2	82	32.2	0	0	---	0.00	30.186 
04:30	37.2	37.2	37.2	82	32.2	0	1	292	0.00	30.177 
04:35	37.2	37.2	37.2	82	32.2	0	0	---	0.00	30.177 
04:40	37.2	37.2	37.2	82	32.2	0	0	---	0.00	30.177 
04:45	37.2	37.2	37.2	82	32.2	0	0	---	0.00	30.173 
04:50	37.2	37.2	37.2	82	32.2	0	0	---	0.00	30.173 
04:55	37.2	37.2	37.2	82	32.2	0	0	---	0.00	30.173 
05:00	37.0	37.0	37.0	83	32.3	0	0	---	0.00	30.176 
05:05	36.9	36.9	36.9	83	32.2	0	0	---	0.00	30.176 
05:10	36.9	36.9	36.9	83	32.2	0	0	---	0.00	30.176 
05:15	36.8	36.8	36.8	83	32.1	0	0	---	0.00	30.175 
05:20	36.8	36.8	36.8	83	32.1	0	0	---	0.00	30.175 
05:25	36.6	36.6	36.6	83	31.9	0	0	---	0.00	30.175 
05:30	36.6	36.6	36.6	84	32.2	0	0	---	0.00	30.174 
05:35	36.6	36.6	36.6	84	32.2	0	0	---	0.00	30.174 
05:40	36.6	36.6	36.6	84	32.2	0	0	---	0.00	30.174 
05:45	36.6	36.6	36.6	84	32.2	0	0	---	0.00	30.178 
05:50	36.6	36.6	36.6	84	32.2	0	0	---	0.00	30.178 
05:55	36.6	36.6	36.6	84	32.2	0	0	---	0.00	30.178 
06:00	36.8	36.8	36.8	84	32.4	0	0	---	0.00	30.184 
06:05	36.8	36.8	36.8	84	32.4	0	0	---	0.00	30.184 
06:10	36.9	36.9	36.9	84	32.5	0	1	292	0.00	30.184 
06:15	36.9	36.9	36.9	84	32.5	0	0	---	0.00	30.180 
06:20	36.9	36.9	36.9	84	32.5	0	1	292	0.00	30.180 
06:25	37.0	37.0	37.0	84	32.6	0	0	---	0.00	30.180 
06:30	37.0	37.0	37.0	84	32.6	0	0	---	0.00	30.188 
06:35	36.9	36.9	36.9	84	32.5	0	0	---	0.00	30.188 
06:40	36.9	36.9	36.9	84	32.5	0	0	---	0.00	30.188 
06:45	36.9	36.9	36.9	84	32.5	0	0	---	0.00	30.190 
06:50	36.9	36.9	36.9	84	32.5	0	0	---	0.00	30.190 
06:55	36.9	36.9	36.9	84	32.5	0	0	---	0.00	30.190 
07:00	37.0	37.0	37.0	84	32.6	0	0	---	0.00	30.191 
07:05	37.0	37.0	37.0	84	32.6	0	0	---	0.00	30.191 
07:10	37.3	37.3	37.3	84	32.9	0	1	292	0.00	30.191 
07:15	37.6	37.6	37.6	84	33.2	0	1	292	0.00	30.193 
07:20	37.9	37.9	37.9	84	33.5	0	2	292	0.00	30.193 
07:25	38.3	38.3	38.3	84	33.9	0	2	292	0.00	30.193 
07:30	38.5	38.5	38.5	82	33.5	0	2	292	0.00	30.194 
07:35	38.8	38.8	38.8	82	33.8	0	2	292	0.00	30.194 
07:40	39.1	39.1	39.1	81	33.8	0	2	292	0.00	30.194 
07:45	39.3	39.3	39.3	80	33.7	0	1	292	0.00	30.193 
07:50	39.5	39.5	39.5	79	33.5	0	3	292	0.00	30.193 
07:55	39.6	39.6	39.6	77	33.0	1	4	90	0.00	30.193 
08:00	39.6	39.6	39.6	77	33.0	1	4	68	0.00	30.185 
08:05	39.6	39.6	39.6	77	33.0	1	4	68	0.00	30.185 
08:10	39.8	39.8	39.8	77	33.2	1	4	158	0.00	30.185 
08:15	39.8	39.8	39.8	76	32.9	1	4	135	0.00	30.176 
08:20	39.9	39.9	39.9	77	33.3	1	5	90	0.00	30.176 
08:25	39.9	39.9	39.9	76	33.0	2	5	90	0.00	30.176 
08:30	39.9	39.9	39.9	76	33.0	1	6	135	0.00	30.166 
08:35	40.1	40.1	40.1	74	32.5	2	7	112	0.00	30.166 
08:40	40.1	40.1	40.1	74	32.5	1	7	90	0.00	30.166 
08:45	40.2	40.2	40.2	73	32.2	2	6	112	0.00	30.158 
08:50	40.3	40.3	40.3	73	32.3	1	6	112	0.00	30.158 
08:55	40.5	40.5	40.5	73	32.5	1	5	112	0.00	30.158 
09:00	40.9	40.9	40.9	73	32.9	1	5	112	0.00	30.154 
09:05	41.2	41.2	41.2	73	33.2	1	7	112	0.00	30.154 
09:10	41.3	41.3	41.3	72	33.0	2	9	90	0.00	30.154 
09:15	41.6	41.6	41.6	72	33.3	1	5	135	0.00	30.171 
09:20	41.9	41.9	41.9	72	33.5	1	5	68	0.00	30.171 
09:25	42.2	42.2	42.2	72	33.8	1	4	68	0.00	30.171 
09:30	42.2	42.2	42.2	70	33.1	1	5	90	0.00	30.191 
09:35	42.6	42.6	42.6	70	33.5	1	4	68	0.00	30.191 
09:40	43.1	43.1	43.1	70	34.0	1	4	112	0.00	30.191 
09:45	43.2	43.2	43.2	69	33.7	1	3	112	0.00	30.199 
09:50	43.3	43.3	43.3	68	33.5	0	3	112	0.00	30.199 
09:55	43.5	43.5	43.5	70	34.4	0	1	112	0.00	30.199 
10:00	43.8	43.8	43.8	68	33.9	1	4	112	0.00	30.198 
10:05	43.6	43.6	43.6	67	33.4	2	5	112	0.00	30.198 
10:10	43.8	43.8	43.8	68	33.9	1	4	112	0.00	30.198 
10:15	43.8	43.8	43.8	69	34.3	1	4	112	0.00	30.191 
10:20	44.2	44.2	44.2	68	34.3	1	5	90	0.00	30.191 
10:25	44.2	44.2	44.2	68	34.3	2	5	90	0.00	30.191 
10:30	44.1	44.1	44.1	69	34.6	1	3	90	0.00	30.193 
10:35	44.3	44.3	44.3	68	34.4	1	5	90	0.00	30.193 
10:40	44.9	44.9	44.9	66	34.2	2	5	90	0.00	30.193 
10:45	45.4	45.4	45.4	65	34.3	1	3	90	0.00	30.200 
10:50	45.7	45.7	45.7	65	34.6	2	6	90	0.00	30.200 
10:55	46.1	46.1	46.1	64	34.6	1	5	90	0.00	30.200 
11:00	46.4	46.4	46.4	62	34.1	2	4	90	0.00	30.191 
11:05	46.1	46.1	46.1	63	34.2	2	6	90	0.00	30.191 
11:10	46.2	46.2	46.2	64	34.7	1	5	90	0.00	30.191 
11:15	46.4	46.4	46.4	64	34.9	1	4	90	0.00	30.193 
11:20	46.5	46.5	46.5	66	35.8	2	6	90	0.00	30.193 
11:25	46.5	46.5	46.5	64	35.0	1	5	90	0.00	30.193 
11:30	46.5	46.5	46.5	64	35.0	1	4	90	0.00	30.193 
11:35	46.7	46.7	46.7	65	35.6	0	2	90	0.00	30.193 
11:40	47.1	47.1	47.1	65	35.9	1	3	90	0.00	30.193 
11:45	47.1	47.1	47.1	63	35.2	1	4	90	0.00	30.196 
11:50	47.1	47.1	47.1	64	35.6	1	3	90	0.00	30.196 
11:55	47.4	47.4	47.4	66	36.6	2	5	0	0.00	30.196 
12:00	47.9	47.9	47.9	64	36.3	1	4	90	0.00	30.188 
12:05	48.2	48.2	48.2	62	35.8	1	4	90	0.00	30.188 
12:10	48.2	48.2	48.2	62	35.8	1	3	90	0.00	30.188 
12:15	48.6	48.6	48.6	62	36.2	1	5	90	0.00	30.183 
12:20	49.2	49.2	49.2	61	36.3	2	6	112	0.00	30.183 
12:25	49.4	49.4	49.4	61	36.5	2	6	112	0.00	30.183 
12:30	49.4	49.4	49.4	60	36.1	1	4	112	0.00	30.187 
12:35	49.6	49.6	49.6	58	35.4	1	5	112	0.00	30.187 
12:40	49.6	49.6	49.6	59	35.9	2	6	112	0.00	30.187 
12:45	49.9	49.9	49.9	58	35.7	1	5	90	0.00	30.182 
12:50	50.1	50.1	50.1	58	35.9	2	5	90	0.00	30.182 
12:55	50.5	50.5	50.5	62	38.0	1	4	90	0.00	30.182 
13:00	51.0	51.0	51.0	57	36.3	2	6	90	0.00	30.169 
13:05	50.7	50.7	50.7	57	36.0	2	5	112	0.00	30.169 
13:10	50.8	50.8	50.8	58	36.6	2	5	112	0.00	30.169 
13:15	50.7	50.7	50.7	59	36.9	1	5	112	0.00	30.171 
13:20	51.1	51.1	51.1	58	36.8	1	7	112	0.00	30.171 
13:25	51.4	51.4	51.4	58	37.1	1	4	112	0.00	30.171 
13:30	51.4	51.4	51.4	59	37.6	1	3	112	0.00	30.167 
13:35	51.4	51.4	51.4	58	37.1	1	4	112	0.00	30.167 
13:40	51.3	51.3	51.3	59	37.5	1	3	112	0.00	30.167 
13:45	51.6	51.6	51.6	58	37.3	1	4	112	0.00	30.169 
13:50	51.7	51.7	51.7	59	37.8	1	3	112	0.00	30.169 
13:55	52.2	52.2	52.2	57	37.4	1	3	112	0.00	30.169 
14:00	52.5	52.5	52.5	58	38.2	1	3	90	0.00	30.148 
14:05	52.8	52.8	52.8	55	37.1	1	5	90	0.00	30.148 
14:10	53.1	53.1	53.1	58	38.7	1	3	90	0.00	30.148 
14:15	53.1	53.1	53.1	55	37.4	2	4	112	0.00	30.139 
14:20	52.9	52.9	52.9	56	37.6	1	3	112	0.00	30.139 
14:25	52.9	52.9	52.9	55	37.2	1	5	90	0.00	30.139 
14:30	52.9	52.9	52.9	55	37.2	1	4	90	0.00	30.140 
14:35	53.3	53.3	53.3	59	39.3	0	2	90	0.00	30.140 
14:40	53.5	53.5	53.5	56	38.2	1	3	90	0.00	30.140 
14:45	53.6	53.6	53.6	56	38.3	1	5	90	0.00	30.139 
14:50	53.6	53.6	53.6	56	38.3	1	4	90	0.00	30.139 
14:55	53.6	53.6	53.6	55	37.8	0	2	90	0.00	30.139 
15:00	53.5	53.5	53.5	56	38.2	0	2	90	0.00	30.132 
15:05	53.6	53.6	53.6	55	37.8	1	4	90	0.00	30.132 
15:10	53.8	53.8	53.8	56	38.5	1	4	90	0.00	30.132 
15:15	53.8	53.8	53.8	55	38.0	1	4	90	0.00	30.135 
15:20	53.6	53.6	53.6	55	37.8	1	4	90	0.00	30.135 
15:25	53.8	53.8	53.8	56	38.5	0	3	90	0.00	30.135 
15:30	53.5	53.5	53.5	54	37.3	2	5	90	0.00	30.130 
15:35	53.5	53.5	53.5	56	38.2	0	3	90	0.00	30.130 
15:40	53.6	53.6	53.6	58	39.2	0	3	90	0.00	30.130 
15:45	53.8	53.8	53.8	55	38.0	1	3	90	0.00	30.126 
15:50	53.8	53.8	53.8	54	37.5	0	4	90	0.00	30.126 
15:55	53.9	53.9	53.9	54	37.6	0	2	90	0.00	30.126 
16:00	54.1	54.1	54.1	56	38.8	0	3	90	0.00	30.123 
16:05	54.1	54.1	54.1	54	37.8	1	4	90	0.00	30.123 
16:10	54.1	54.1	54.1	54	37.8	1	3	90	0.00	30.123 
16:15	54.4	54.4	54.4	55	38.6	1	4	90	0.00	30.125 
16:20	54.4	54.4	54.4	54	38.1	1	3	90	0.00	30.125 
16:25	54.4	54.4	54.4	55	38.6	1	3	90	0.00	30.125 
16:30	54.4	54.4	54.4	55	38.6	1	3	90	0.00	30.122 
16:35	54.2	54.2	54.2	55	38.4	0	2	90	0.00	30.122 
16:40	54.1	54.1	54.1	55	38.3	1	4	90	0.00	30.122 
16:45	54.2	54.2	54.2	53	37.4	1	3	90	0.00	30.122 
16:50	54.2	54.2	54.2	56	38.8	0	3	90	0.00	30.122 
16:55	54.2	54.2	54.2	54	37.9	0	4	90	0.00	30.122 
17:00	54.2	54.2	54.2	54	37.9	1	3	90	0.00	30.116 
17:05	54.1	54.1	54.1	53	37.4	2	4	90	0.00	30.116 
17:10	54.1	54.1	54.1	54	37.8	1	4	90	0.00	30.116 
17:15	54.1	54.1	54.1	54	37.8	1	4	90	0.00	30.110 
17:20	54.1	54.1	54.1	55	38.3	1	3	90	0.00	30.110 
17:25	54.2	54.2	54.2	55	38.4	0	3	90	0.00	30.110 
17:30	54.2	54.2	54.2	53	37.4	2	4	90	0.00	30.103 
17:35	54.2	54.2	54.2	53	37.4	1	4	90	0.00	30.103 
17:40	54.2	54.2	54.2	53	37.4	1	4	90	0.00	30.103 
17:45	54.1	54.1	54.1	54	37.8	2	5	90	0.00	30.099 
17:50	54.1	54.1	54.1	54	37.8	1	3	90	0.00	30.099 
17:55	54.1	54.1	54.1	54	37.8	1	4	90	0.00	30.099 
18:00	54.1	54.1	54.1	53	37.4	0	3	90	0.00	30.099 
18:05	53.9	53.9	53.9	54	37.6	1	4	90	0.00	30.099 
18:10	53.9	53.9	53.9	54	37.6	0	1	90	0.00	30.099 
18:15	53.8	53.8	53.8	54	37.5	0	2	90	0.00	30.101 
18:20	53.8	53.8	53.8	54	37.5	1	6	90	0.00	30.101 
18:25	53.8	53.8	53.8	55	38.0	0	1	90	0.00	30.101 
18:30	53.9	53.9	53.9	54	37.6	0	2	90	0.00	30.092 
18:35	53.9	53.9	53.9	56	38.6	0	1	90	0.00	30.092 
18:40	53.9	53.9	53.9	57	39.0	0	1	90	0.00	30.092 
18:45	53.9	53.9	53.9	57	39.0	0	1	90	0.00	30.081 
18:50	53.9	53.9	53.9	56	38.6	0	2	90	0.00	30.081 
18:55	53.9	53.9	53.9	55	38.1	1	4	90	0.00	30.081 
19:00	53.9	53.9	53.9	55	38.1	1	3	90	0.00	30.073 
19:05	53.8	53.8	53.8	56	38.5	0	3	90	0.00	30.073 
19:10	53.8	53.8	53.8	57	38.9	0	1	90	0.00	30.073 
19:15	53.8	53.8	53.8	58	39.4	0	0	---	0.00	30.062 
19:20	53.8	53.8	53.8	60	40.2	0	1	90	0.00	30.062 
19:25	53.6	53.6	53.6	59	39.6	0	2	90	0.00	30.062 
19:30	53.5	53.5	53.5	61	40.4	0	4	90	0.00	30.056 
19:35	53.3	53.3	53.3	63	41.0	0	1	90	0.00	30.056 
19:40	53.1	53.1	53.1	62	40.4	1	3	90	0.00	30.056 
19:45	52.9	52.9	52.9	64	41.1	1	4	90	0.00	30.047 
19:50	52.8	52.8	52.8	64	41.0	0	1	90	0.00	30.047 
19:55	52.8	52.8	52.8	65	41.4	0	0	---	0.00	30.047 
20:00	52.8	52.8	52.8	65	41.4	0	1	90	0.00	30.047 
20:05	52.6	52.6	52.6	66	41.6	0	1	90	0.00	30.047 
20:10	52.5	52.5	52.5	67	41.9	0	2	90	0.00	30.047 
20:15	52.5	52.5	52.5	68	42.2	0	2	90	0.00	30.033 
20:20	52.3	52.3	52.3	70	42.8	0	2	90	0.01	30.033 
20:25	52.2	52.2	52.2	72	43.4	0	2	90	0.00	30.033 
20:30	51.7	51.7	51.7	73	43.3	0	2	90	0.00	30.038 
20:35	51.4	51.4	51.4	73	43.0	0	1	90	0.00	30.038 
20:40	51.1	51.1	51.1	74	43.1	0	1	90	0.00	30.038 
20:45	51.0	51.0	51.0	74	43.0	0	1	90	0.00	30.038 
20:50	50.7	50.7	50.7	74	42.7	0	1	90	0.00	30.038 
20:55	50.5	50.5	50.5	74	42.5	0	2	90	0.00	30.038 
21:00	50.4	50.4	50.4	74	42.4	0	1	90	0.00	30.031 
21:05	50.4	50.4	50.4	73	42.1	0	2	90	0.00	30.031 
21:10	50.2	50.2	50.2	73	41.9	0	2	90	0.00	30.031 
21:15	50.2	50.2	50.2	73	41.9	0	0	---	0.00	30.044 
21:20	50.2	50.2	50.2	74	42.2	0	0	---	0.00	30.044 
21:25	50.1	50.1	50.1	74	42.1	0	1	90	0.00	30.044 
21:30	50.1	50.1	50.1	73	41.8	0	1	90	0.00	30.041 
21:35	50.1	50.1	50.1	74	42.1	0	0	---	0.00	30.041 
21:40	50.1	50.1	50.1	75	42.5	0	0	---	0.00	30.041 
21:45	49.8	49.8	49.8	76	42.5	0	0	---	0.01	30.052 
21:50	49.5	49.5	49.5	77	42.6	0	0	---	0.00	30.052 
21:55	49.4	49.4	49.4	79	43.2	0	0	---	0.00	30.052 
22:00	49.2	49.2	49.2	80	43.3	0	0	---	0.00	30.060 
22:05	49.1	49.1	49.1	82	43.8	0	0	---	0.00	30.060 
22:10	49.1	49.1	49.1	81	43.5	0	1	90	0.00	30.060 
22:15	48.9	48.9	48.9	82	43.6	0	0	---	0.00	30.063 
22:20	48.9	48.9	48.9	82	43.6	0	0	---	0.00	30.063 
22:25	48.9	48.9	48.9	82	43.6	0	0	---	0.01	30.063 
22:30	48.8	48.8	48.8	83	43.9	0	0	---	0.00	30.063 
22:35	48.6	48.6	48.6	83	43.7	0	0	---	0.01	30.063 
22:40	48.5	48.5	48.5	84	43.9	0	0	---	0.01	30.063 
22:45	48.2	48.2	48.2	84	43.6	0	0	---	0.00	30.062 
22:50	47.9	47.9	47.9	84	43.3	0	2	90	0.00	30.062 
22:55	47.7	47.7	47.7	84	43.1	0	1	90	0.00	30.062 
23:00	47.4	47.4	47.4	84	42.8	0	0	---	0.00	30.069 
23:05	47.3	47.3	47.3	84	42.7	0	0	---	0.00	30.069 
23:10	47.0	47.0	47.0	84	42.4	0	0	---	0.00	30.069 
23:15	47.0	47.0	47.0	84	42.4	0	0	---	0.00	30.071 
23:20	46.8	46.8	46.8	85	42.5	0	0	---	0.00	30.071 
23:25	46.7	46.7	46.7	85	42.4	0	0	---	0.00	30.071 
23:30	46.7	46.7	46.7	86	42.7	0	0	---	0.00	30.074 
23:35	46.8	46.8	46.8	87	43.1	0	0	---	0.00	30.074 
23:40	46.8	46.8	46.8	87	43.1	0	0	---	0.00	30.074 
23:45	46.8	46.8	46.8	88	43.4	0	0	---	0.01	30.070 
23:50	46.8	46.8	46.8	88	43.4	0	0	---	0.00	30.070 
23:55	46.7	46.7	46.7	88	43.3	0	0	---	0.00	30.070 

CoCoRaHS
IN-AL-39
A2 Web Hosting
Creative Commons License
GoDaddy
search engine by freefind advanced

loaded 2018-11-19 11:12:15 • last modified 2010-11-18 10:43:29
Privacy PolicyDisclaimer
• wx.awcolley.com is powered by PmWiki v.2002016 •
• all content (unless otherwise noted) © 2018 A W Colley